This is the latest recevied weather packets stored in our database for station/object YO2LDK-13. If no packets are shown the sender has not sent any weather packets the latest 10 day(s).
| Time | Temp. | Humidity | Pressure | Rain* | Wind** | Luminosity | Snow |
|---|---|---|---|---|---|---|---|
| 1777384220 | 21.11° C | 30% | 1007.5 hPa | 0 mm | - | 322 W/m² | - |
| 1777383320 | 21.67° C | 27% | 1007.5 hPa | 0 mm | - | 343 W/m² | - |
| 1777383021 | 21.67° C | 28% | 1007.8 hPa | 0 mm | - | 311 W/m² | - |
| 1777381820 | 21.11° C | 29% | 1007.8 hPa | 0 mm | - | 364 W/m² | - |
| 1777381519 | 20.56° C | 28% | 1007.8 hPa | 0 mm | - | 401 W/m² | - |
| 1777381220 | 21.11° C | 28% | 1007.8 hPa | 0 mm | - | 458 W/m² | - |
| 1777380923 | 21.67° C | 28% | 1008.1 hPa | 0 mm | - | 502 W/m² | - |
| 1777380022 | 22.22° C | 26% | 1008.1 hPa | 0 mm | - | 657 W/m² | - |
| 1777379720 | 22.22° C | 26% | 1007.8 hPa | 0 mm | - | 694 W/m² | - |
| 1777379121 | 21.67° C | 29% | 1008.5 hPa | 0 mm | - | 714 W/m² | - |
| 1777378820 | 22.22° C | 28% | 1008.1 hPa | 0 mm | - | 729 W/m² | - |
| 1777378520 | 21.67° C | 27% | 1008.5 hPa | 0 mm | - | 758 W/m² | - |
| 1777378220 | 20.56° C | 27% | 1008.1 hPa | 0 mm | - | 761 W/m² | - |
| 1777377919 | 22.78° C | 25% | 1008.5 hPa | 0 mm | - | 727 W/m² | - |
| 1777377021 | 21.67° C | 26% | 1008.5 hPa | 0 mm | - | 767 W/m² | - |
| 1777376720 | 21.67° C | 25% | 1008.5 hPa | 0 mm | - | 823 W/m² | - |
| 1777376120 | 21.11° C | 28% | 1008.5 hPa | 0 mm | - | 857 W/m² | - |
| 1777375220 | 21.67° C | 26% | 1008.8 hPa | 0 mm | - | 764 W/m² | - |
| 1777374620 | 21.11° C | 27% | 1008.5 hPa | 0 mm | - | 785 W/m² | - |
| 1777374319 | 21.67° C | 26% | 1008.8 hPa | 0 mm | - | 816 W/m² | - |
| 1777373720 | 22.22° C | 26% | 1008.5 hPa | 0 mm | - | 873 W/m² | - |
| 1777373420 | 22.22° C | 27% | 1008.8 hPa | 0 mm | - | 871 W/m² | - |
| 1777372519 | 20° C | 28% | 1008.8 hPa | 0 mm | - | 837 W/m² | - |
| 1777372220 | 20° C | 29% | 1009.1 hPa | 0 mm | - | 762 W/m² | - |
| 1777371919 | 21.67° C | 29% | 1009.1 hPa | 0 mm | - | 682 W/m² | - |
* Rain latest hour (hover to see other rain measurements)
** Current wind speed in m/s (hover to see current wind gust speed)